BKP180 VTSM-VTBS
Flight info
| Callsign | BKP180 |
|---|---|
| Flight time | 0h 57m |
| Altitude | 36000 |
| Route | OLBAG1A OLBAG Y17 DONSI M769 LEBIM LEBIM1C |
| Aircraft | A319/M-SDE3FGHIRWY/LB1 |
Departure
| Time | 2026-04-16 12:46 |
|---|---|
| Airport | Samui International Airport (VTSM) |
Arrival
| Time | 2026-04-16 13:43 |
|---|---|
| Airport | Suvarnabhumi Airport (VTBS) |
| Time | Latitude | Longitude | Altitude | Speed | Heading |
|---|---|---|---|---|---|
| 2026-04-16 12:28 | 9.55081 | 100.06344 | 75 ft | 0 kts | 83° |
| 2026-04-16 12:38 | 9.55081 | 100.06342 | 76 ft | 1 kts | 84° |
| 2026-04-16 12:39 | 9.55079 | 100.06329 | 75 ft | 1 kts | 83° |
| 2026-04-16 12:39 | 9.55078 | 100.06319 | 74 ft | 2 kts | 67° |
| 2026-04-16 12:39 | 9.55068 | 100.06307 | 74 ft | 2 kts | 28° |
| 2026-04-16 12:39 | 9.55056 | 100.06303 | 73 ft | 0 kts | 358° |
| 2026-04-16 12:40 | 9.55049 | 100.06304 | 73 ft | 1 kts | 352° |
| 2026-04-16 12:40 | 9.55048 | 100.06304 | 73 ft | 0 kts | 353° |
| 2026-04-16 12:42 | 9.55052 | 100.06304 | 73 ft | 1 kts | 354° |
| 2026-04-16 12:42 | 9.55070 | 100.06302 | 73 ft | 3 kts | 354° |
| 2026-04-16 12:42 | 9.55096 | 100.06299 | 74 ft | 4 kts | 354° |
| 2026-04-16 12:42 | 9.55110 | 100.06296 | 74 ft | 0 kts | 336° |
| 2026-04-16 12:43 | 9.55110 | 100.06295 | 74 ft | 0 kts | 335° |
| 2026-04-16 12:43 | 9.55119 | 100.06267 | 73 ft | 10 kts | 265° |
| 2026-04-16 12:44 | 9.55159 | 100.06209 | 71 ft | 13 kts | 355° |
| 2026-04-16 12:44 | 9.55254 | 100.06202 | 71 ft | 13 kts | 356° |
| 2026-04-16 12:44 | 9.55369 | 100.06192 | 71 ft | 18 kts | 355° |
| 2026-04-16 12:44 | 9.55496 | 100.06181 | 73 ft | 17 kts | 354° |
| 2026-04-16 12:45 | 9.55607 | 100.06177 | 73 ft | 11 kts | 14° |
| 2026-04-16 12:45 | 9.55679 | 100.06191 | 73 ft | 10 kts | 355° |
| 2026-04-16 12:45 | 9.55691 | 100.06160 | 72 ft | 8 kts | 199° |
| 2026-04-16 12:45 | 9.55605 | 100.06168 | 73 ft | 31 kts | 175° |
| 2026-04-16 12:46 | 9.55062 | 100.06219 | 70 ft | 122 kts | 175° |
| 2026-04-16 12:46 | 9.54023 | 100.06310 | 451 ft | 159 kts | 173° |
| 2026-04-16 12:46 | 9.52937 | 100.06438 | 1342 ft | 164 kts | 164° |
| 2026-04-16 12:46 | 9.51910 | 100.06844 | 2232 ft | 161 kts | 152° |
| 2026-04-16 12:47 | 9.50849 | 100.07346 | 2743 ft | 176 kts | 154° |
| 2026-04-16 12:47 | 9.49680 | 100.07869 | 3220 ft | 194 kts | 156° |
| 2026-04-16 12:47 | 9.48340 | 100.08435 | 3705 ft | 216 kts | 157° |
| 2026-04-16 12:47 | 9.47011 | 100.09190 | 4356 ft | 228 kts | 133° |
| 2026-04-16 12:48 | 9.46252 | 100.10556 | 5166 ft | 230 kts | 101° |
| 2026-04-16 12:48 | 9.46176 | 100.12167 | 5987 ft | 233 kts | 88° |
| 2026-04-16 12:48 | 9.46207 | 100.13809 | 6808 ft | 237 kts | 88° |
| 2026-04-16 12:48 | 9.46238 | 100.15459 | 7631 ft | 239 kts | 85° |
| 2026-04-16 12:49 | 9.46704 | 100.17049 | 8429 ft | 241 kts | 55° |
| 2026-04-16 12:49 | 9.47931 | 100.18166 | 9229 ft | 242 kts | 26° |
| 2026-04-16 12:49 | 9.49563 | 100.18601 | 9968 ft | 246 kts | 9° |
| 2026-04-16 12:49 | 9.51255 | 100.18847 | 10677 ft | 249 kts | 9° |
| 2026-04-16 12:50 | 9.52981 | 100.19106 | 11391 ft | 252 kts | 10° |
| 2026-04-16 12:50 | 9.54730 | 100.19324 | 12085 ft | 255 kts | 6° |
| 2026-04-16 12:50 | 9.56505 | 100.19395 | 12639 ft | 263 kts | 1° |
| 2026-04-16 12:50 | 9.58410 | 100.19367 | 12973 ft | 281 kts | 0° |
| 2026-04-16 12:51 | 9.60433 | 100.19325 | 13286 ft | 298 kts | 0° |
| 2026-04-16 12:51 | 9.62581 | 100.19279 | 13583 ft | 316 kts | 0° |
| 2026-04-16 12:51 | 9.64831 | 100.19234 | 13951 ft | 331 kts | 0° |
| 2026-04-16 12:51 | 9.67154 | 100.19188 | 14531 ft | 337 kts | 360° |
| 2026-04-16 12:52 | 9.69516 | 100.19141 | 15163 ft | 341 kts | 0° |
| 2026-04-16 12:52 | 9.71913 | 100.19157 | 15783 ft | 343 kts | 6° |
| 2026-04-16 12:52 | 9.74258 | 100.19605 | 16374 ft | 346 kts | 18° |
| 2026-04-16 12:52 | 9.76512 | 100.20520 | 16972 ft | 348 kts | 27° |
| 2026-04-16 12:53 | 9.78678 | 100.21604 | 17542 ft | 351 kts | 28° |
| 2026-04-16 12:53 | 9.80875 | 100.22736 | 18102 ft | 354 kts | 28° |
| 2026-04-16 12:53 | 9.83062 | 100.23861 | 18642 ft | 358 kts | 28° |
| 2026-04-16 12:53 | 9.85302 | 100.25005 | 19180 ft | 361 kts | 27° |
| 2026-04-16 12:54 | 9.87567 | 100.26154 | 19716 ft | 364 kts | 27° |
| 2026-04-16 12:54 | 9.89852 | 100.27312 | 20224 ft | 368 kts | 27° |
| 2026-04-16 12:54 | 9.92166 | 100.28484 | 20705 ft | 371 kts | 27° |
| 2026-04-16 12:54 | 9.94480 | 100.29652 | 21165 ft | 375 kts | 27° |
| 2026-04-16 12:55 | 9.96843 | 100.30846 | 21619 ft | 378 kts | 27° |
| 2026-04-16 12:55 | 9.99159 | 100.32100 | 22061 ft | 381 kts | 30° |
| 2026-04-16 12:55 | 10.01482 | 100.33444 | 22507 ft | 385 kts | 30° |
| 2026-04-16 12:55 | 10.03824 | 100.34816 | 22953 ft | 388 kts | 30° |
| 2026-04-16 12:56 | 10.06176 | 100.36195 | 23380 ft | 391 kts | 30° |
| 2026-04-16 12:56 | 10.08532 | 100.37575 | 23803 ft | 394 kts | 30° |
| 2026-04-16 12:56 | 10.10964 | 100.38905 | 24242 ft | 397 kts | 23° |
| 2026-04-16 12:56 | 10.13588 | 100.39798 | 24655 ft | 399 kts | 12° |
| 2026-04-16 12:57 | 10.16326 | 100.40177 | 25064 ft | 401 kts | 2° |
| 2026-04-16 12:57 | 10.19131 | 100.40274 | 25469 ft | 404 kts | 0° |
| 2026-04-16 12:57 | 10.21972 | 100.40327 | 25859 ft | 407 kts | 0° |
| 2026-04-16 12:57 | 10.24832 | 100.40376 | 26252 ft | 410 kts | 0° |
| 2026-04-16 12:58 | 10.27713 | 100.40433 | 26641 ft | 413 kts | 0° |
| 2026-04-16 12:58 | 10.30587 | 100.40493 | 27019 ft | 416 kts | 0° |
| 2026-04-16 12:58 | 10.33513 | 100.40558 | 27405 ft | 419 kts | 0° |
| 2026-04-16 12:58 | 10.36413 | 100.40625 | 27791 ft | 421 kts | 0° |
| 2026-04-16 12:59 | 10.39358 | 100.40694 | 28163 ft | 424 kts | 360° |
| 2026-04-16 12:59 | 10.42358 | 100.40765 | 28526 ft | 427 kts | 360° |
| 2026-04-16 12:59 | 10.45312 | 100.40836 | 28897 ft | 429 kts | 360° |
| 2026-04-16 13:00 | 10.51346 | 100.40981 | 29666 ft | 434 kts | 360° |
| 2026-04-16 13:00 | 10.54362 | 100.41054 | 30041 ft | 436 kts | 360° |
| 2026-04-16 13:00 | 10.57406 | 100.41126 | 30424 ft | 438 kts | 360° |
| 2026-04-16 13:00 | 10.60480 | 100.41200 | 30800 ft | 440 kts | 360° |
| 2026-04-16 13:01 | 10.63527 | 100.41273 | 31160 ft | 442 kts | 360° |
| 2026-04-16 13:01 | 10.66620 | 100.41348 | 31524 ft | 444 kts | 360° |
| 2026-04-16 13:01 | 10.69726 | 100.41424 | 31884 ft | 446 kts | 359° |
| 2026-04-16 13:01 | 10.72826 | 100.41499 | 32344 ft | 445 kts | 360° |
| 2026-04-16 13:02 | 10.75939 | 100.41574 | 32907 ft | 442 kts | 360° |
| 2026-04-16 13:02 | 10.78994 | 100.41647 | 33482 ft | 440 kts | 360° |
| 2026-04-16 13:02 | 10.82037 | 100.41721 | 34053 ft | 438 kts | 360° |
| 2026-04-16 13:02 | 10.85105 | 100.41795 | 34557 ft | 438 kts | 360° |
| 2026-04-16 13:03 | 10.88145 | 100.41868 | 34964 ft | 439 kts | 360° |
| 2026-04-16 13:03 | 10.91232 | 100.41942 | 35324 ft | 441 kts | 360° |
| 2026-04-16 13:03 | 10.94329 | 100.42015 | 35672 ft | 443 kts | 360° |
| 2026-04-16 13:03 | 10.97404 | 100.42090 | 35793 ft | 445 kts | 0° |
| 2026-04-16 13:04 | 11.00525 | 100.42166 | 35795 ft | 445 kts | 360° |
| 2026-04-16 13:04 | 11.06725 | 100.42316 | 35796 ft | 446 kts | 360° |
| 2026-04-16 13:05 | 11.12951 | 100.42467 | 35797 ft | 446 kts | 360° |
| 2026-04-16 13:05 | 11.19147 | 100.42615 | 35805 ft | 445 kts | 360° |
| 2026-04-16 13:06 | 11.25347 | 100.42764 | 35812 ft | 445 kts | 360° |
| 2026-04-16 13:06 | 11.31552 | 100.42915 | 35814 ft | 445 kts | 0° |
| 2026-04-16 13:07 | 11.37764 | 100.43071 | 35814 ft | 445 kts | 360° |
| 2026-04-16 13:07 | 11.43976 | 100.43225 | 35813 ft | 445 kts | 360° |
| 2026-04-16 13:08 | 11.50156 | 100.43378 | 35814 ft | 445 kts | 360° |
| 2026-04-16 13:08 | 11.56367 | 100.43532 | 35813 ft | 445 kts | 360° |
| 2026-04-16 13:09 | 11.62606 | 100.43685 | 35812 ft | 445 kts | 360° |
| 2026-04-16 13:09 | 11.68772 | 100.43835 | 35811 ft | 445 kts | 360° |
| 2026-04-16 13:10 | 11.75006 | 100.43989 | 35810 ft | 445 kts | 360° |
| 2026-04-16 13:10 | 11.81207 | 100.44141 | 35809 ft | 445 kts | 360° |
| 2026-04-16 13:11 | 11.87408 | 100.44295 | 35810 ft | 445 kts | 0° |
| 2026-04-16 13:11 | 11.93599 | 100.44453 | 35813 ft | 445 kts | 0° |
| 2026-04-16 13:12 | 11.99835 | 100.44612 | 35816 ft | 445 kts | 360° |
| 2026-04-16 13:12 | 12.06029 | 100.44769 | 35358 ft | 445 kts | 360° |
| 2026-04-16 13:12 | 12.09113 | 100.44849 | 34795 ft | 442 kts | 360° |
| 2026-04-16 13:13 | 12.12187 | 100.44926 | 34159 ft | 441 kts | 360° |
| 2026-04-16 13:13 | 12.15256 | 100.45003 | 33510 ft | 439 kts | 359° |
| 2026-04-16 13:13 | 12.18289 | 100.45080 | 32849 ft | 438 kts | 359° |
| 2026-04-16 13:13 | 12.21361 | 100.45157 | 32210 ft | 438 kts | 360° |
| 2026-04-16 13:14 | 12.24426 | 100.45233 | 31538 ft | 439 kts | 360° |
| 2026-04-16 13:14 | 12.27454 | 100.45309 | 30963 ft | 437 kts | 360° |
| 2026-04-16 13:14 | 12.30479 | 100.45386 | 30480 ft | 433 kts | 360° |
| 2026-04-16 13:14 | 12.33510 | 100.45463 | 29940 ft | 430 kts | 360° |
| 2026-04-16 13:15 | 12.36505 | 100.45538 | 29403 ft | 428 kts | 360° |
| 2026-04-16 13:15 | 12.39455 | 100.45612 | 28874 ft | 425 kts | 360° |
| 2026-04-16 13:15 | 12.42424 | 100.45686 | 28351 ft | 422 kts | 360° |
| 2026-04-16 13:15 | 12.45340 | 100.45759 | 27853 ft | 418 kts | 0° |
| 2026-04-16 13:16 | 12.48262 | 100.45831 | 27368 ft | 415 kts | 0° |
| 2026-04-16 13:16 | 12.51150 | 100.45904 | 26885 ft | 411 kts | 0° |
| 2026-04-16 13:16 | 12.53971 | 100.45975 | 26406 ft | 408 kts | 0° |
| 2026-04-16 13:16 | 12.56817 | 100.46046 | 25925 ft | 404 kts | 0° |
| 2026-04-16 13:17 | 12.59642 | 100.46117 | 25438 ft | 401 kts | 1° |
| 2026-04-16 13:17 | 12.62400 | 100.46187 | 24958 ft | 398 kts | 1° |
| 2026-04-16 13:17 | 12.65164 | 100.46255 | 24481 ft | 395 kts | 1° |
| 2026-04-16 13:17 | 12.67904 | 100.46324 | 24008 ft | 392 kts | 1° |
| 2026-04-16 13:18 | 12.70646 | 100.46393 | 23538 ft | 389 kts | 1° |
| 2026-04-16 13:18 | 12.73330 | 100.46460 | 23090 ft | 386 kts | 1° |
| 2026-04-16 13:18 | 12.76020 | 100.46529 | 22645 ft | 383 kts | 2° |
| 2026-04-16 13:18 | 12.78679 | 100.46596 | 22205 ft | 379 kts | 2° |
| 2026-04-16 13:19 | 12.81313 | 100.46663 | 21778 ft | 376 kts | 2° |
| 2026-04-16 13:19 | 12.83928 | 100.46729 | 21535 ft | 375 kts | 2° |
| 2026-04-16 13:19 | 12.86550 | 100.46796 | 21296 ft | 374 kts | 2° |
| 2026-04-16 13:19 | 12.89139 | 100.46862 | 20996 ft | 373 kts | 2° |
| 2026-04-16 13:20 | 12.91740 | 100.46928 | 20613 ft | 371 kts | 2° |
| 2026-04-16 13:20 | 12.94314 | 100.46993 | 20201 ft | 369 kts | 2° |
| 2026-04-16 13:20 | 12.96897 | 100.47058 | 19771 ft | 368 kts | 2° |
| 2026-04-16 13:20 | 12.99431 | 100.47122 | 19337 ft | 367 kts | 2° |
| 2026-04-16 13:21 | 13.01999 | 100.47186 | 18900 ft | 366 kts | 2° |
| 2026-04-16 13:21 | 13.04533 | 100.47251 | 18462 ft | 366 kts | 2° |
| 2026-04-16 13:21 | 13.07082 | 100.47380 | 18002 ft | 364 kts | 9° |
| 2026-04-16 13:21 | 13.09506 | 100.48083 | 17555 ft | 361 kts | 25° |
| 2026-04-16 13:22 | 13.11651 | 100.49364 | 17120 ft | 358 kts | 35° |
| 2026-04-16 13:22 | 13.13704 | 100.50851 | 16672 ft | 357 kts | 37° |
| 2026-04-16 13:22 | 13.15711 | 100.52332 | 16229 ft | 356 kts | 37° |
| 2026-04-16 13:22 | 13.17731 | 100.53818 | 15782 ft | 355 kts | 36° |
| 2026-04-16 13:23 | 13.19732 | 100.55279 | 15347 ft | 354 kts | 36° |
| 2026-04-16 13:23 | 13.21744 | 100.56741 | 14898 ft | 352 kts | 36° |
| 2026-04-16 13:23 | 13.23748 | 100.58194 | 14450 ft | 351 kts | 36° |
| 2026-04-16 13:23 | 13.25731 | 100.59629 | 14004 ft | 349 kts | 36° |
| 2026-04-16 13:24 | 13.27695 | 100.61050 | 13665 ft | 344 kts | 36° |
| 2026-04-16 13:24 | 13.29632 | 100.62448 | 13662 ft | 331 kts | 36° |
| 2026-04-16 13:24 | 13.31478 | 100.63779 | 13585 ft | 322 kts | 36° |
| 2026-04-16 13:24 | 13.33298 | 100.65094 | 13419 ft | 312 kts | 36° |
| 2026-04-16 13:25 | 13.35058 | 100.66365 | 13265 ft | 304 kts | 36° |
| 2026-04-16 13:25 | 13.36758 | 100.67593 | 13111 ft | 295 kts | 36° |
| 2026-04-16 13:25 | 13.38426 | 100.68800 | 12963 ft | 287 kts | 36° |
| 2026-04-16 13:25 | 13.40035 | 100.69962 | 12812 ft | 279 kts | 36° |
| 2026-04-16 13:26 | 13.41589 | 100.71085 | 12661 ft | 271 kts | 36° |
| 2026-04-16 13:26 | 13.43127 | 100.72198 | 12433 ft | 267 kts | 36° |
| 2026-04-16 13:26 | 13.44649 | 100.73300 | 12143 ft | 266 kts | 36° |
| 2026-04-16 13:26 | 13.46171 | 100.74403 | 11832 ft | 265 kts | 36° |
| 2026-04-16 13:27 | 13.47667 | 100.75489 | 11544 ft | 264 kts | 36° |
| 2026-04-16 13:27 | 13.49168 | 100.76577 | 11280 ft | 268 kts | 36° |
| 2026-04-16 13:27 | 13.50778 | 100.77746 | 11043 ft | 298 kts | 36° |
| 2026-04-16 13:27 | 13.52541 | 100.79026 | 10825 ft | 310 kts | 36° |
| 2026-04-16 13:28 | 13.54308 | 100.80249 | 10568 ft | 305 kts | 31° |
| 2026-04-16 13:28 | 13.56233 | 100.81183 | 10320 ft | 300 kts | 20° |
| 2026-04-16 13:28 | 13.58210 | 100.81801 | 10085 ft | 297 kts | 16° |
| 2026-04-16 13:28 | 13.60223 | 100.82343 | 9891 ft | 296 kts | 15° |
| 2026-04-16 13:29 | 13.62218 | 100.82871 | 9764 ft | 296 kts | 15° |
| 2026-04-16 13:29 | 13.64231 | 100.83411 | 9644 ft | 296 kts | 15° |
| 2026-04-16 13:29 | 13.66213 | 100.83948 | 9528 ft | 295 kts | 15° |
| 2026-04-16 13:29 | 13.68211 | 100.84495 | 9401 ft | 295 kts | 15° |
| 2026-04-16 13:30 | 13.70181 | 100.85034 | 9282 ft | 295 kts | 15° |
| 2026-04-16 13:30 | 13.72168 | 100.85578 | 9111 ft | 294 kts | 15° |
| 2026-04-16 13:30 | 13.74127 | 100.86114 | 8850 ft | 291 kts | 15° |
| 2026-04-16 13:30 | 13.76096 | 100.86655 | 8510 ft | 290 kts | 15° |
| 2026-04-16 13:31 | 13.78062 | 100.87193 | 8182 ft | 289 kts | 15° |
| 2026-04-16 13:31 | 13.79964 | 100.87713 | 8015 ft | 281 kts | 15° |
| 2026-04-16 13:31 | 13.81847 | 100.88230 | 7868 ft | 273 kts | 15° |
| 2026-04-16 13:31 | 13.83649 | 100.88724 | 7724 ft | 265 kts | 15° |
| 2026-04-16 13:32 | 13.85413 | 100.89207 | 7582 ft | 257 kts | 15° |
| 2026-04-16 13:32 | 13.87135 | 100.89679 | 7410 ft | 251 kts | 15° |
| 2026-04-16 13:32 | 13.88821 | 100.90141 | 7146 ft | 250 kts | 15° |
| 2026-04-16 13:32 | 13.90500 | 100.90601 | 6899 ft | 249 kts | 16° |
| 2026-04-16 13:33 | 13.92183 | 100.91062 | 6658 ft | 247 kts | 16° |
| 2026-04-16 13:33 | 13.93832 | 100.91515 | 6399 ft | 246 kts | 16° |
| 2026-04-16 13:33 | 13.95500 | 100.91973 | 6166 ft | 243 kts | 16° |
| 2026-04-16 13:33 | 13.97094 | 100.92374 | 5964 ft | 231 kts | 7° |
| 2026-04-16 13:34 | 13.98653 | 100.92160 | 5737 ft | 224 kts | 335° |
| 2026-04-16 13:34 | 13.99852 | 100.91221 | 5547 ft | 213 kts | 307° |
| 2026-04-16 13:34 | 14.00471 | 100.89910 | 5383 ft | 198 kts | 286° |
| 2026-04-16 13:34 | 14.00802 | 100.88532 | 4943 ft | 202 kts | 282° |
| 2026-04-16 13:35 | 14.01086 | 100.87125 | 4605 ft | 202 kts | 277° |
| 2026-04-16 13:35 | 14.00941 | 100.85700 | 4297 ft | 198 kts | 248° |
| 2026-04-16 13:35 | 14.00183 | 100.84557 | 4008 ft | 194 kts | 221° |
| 2026-04-16 13:35 | 13.99028 | 100.83895 | 3740 ft | 190 kts | 197° |
| 2026-04-16 13:36 | 13.97741 | 100.83550 | 3483 ft | 188 kts | 193° |
| 2026-04-16 13:36 | 13.96462 | 100.83239 | 3220 ft | 187 kts | 193° |
| 2026-04-16 13:36 | 13.95214 | 100.82930 | 2966 ft | 185 kts | 193° |
| 2026-04-16 13:36 | 13.93967 | 100.82613 | 2715 ft | 183 kts | 193° |
| 2026-04-16 13:37 | 13.92733 | 100.82294 | 2508 ft | 181 kts | 193° |
| 2026-04-16 13:37 | 13.91504 | 100.81972 | 2514 ft | 181 kts | 193° |
| 2026-04-16 13:37 | 13.90272 | 100.81647 | 2500 ft | 182 kts | 193° |
| 2026-04-16 13:37 | 13.89045 | 100.81325 | 2490 ft | 182 kts | 193° |
| 2026-04-16 13:38 | 13.87824 | 100.81004 | 2452 ft | 182 kts | 193° |
| 2026-04-16 13:38 | 13.86590 | 100.80679 | 2258 ft | 178 kts | 193° |
| 2026-04-16 13:38 | 13.85422 | 100.80373 | 2050 ft | 166 kts | 193° |
| 2026-04-16 13:38 | 13.84338 | 100.80088 | 1973 ft | 157 kts | 193° |
| 2026-04-16 13:39 | 13.83277 | 100.79810 | 1994 ft | 153 kts | 193° |
| 2026-04-16 13:39 | 13.82313 | 100.79555 | 1964 ft | 131 kts | 193° |
| 2026-04-16 13:39 | 13.81460 | 100.79331 | 1960 ft | 123 kts | 193° |
| 2026-04-16 13:39 | 13.80635 | 100.79115 | 1983 ft | 122 kts | 193° |
| 2026-04-16 13:40 | 13.79797 | 100.78896 | 1995 ft | 123 kts | 193° |
| 2026-04-16 13:40 | 13.78968 | 100.78678 | 1859 ft | 123 kts | 193° |
| 2026-04-16 13:40 | 13.78140 | 100.78460 | 1708 ft | 122 kts | 193° |
| 2026-04-16 13:40 | 13.77304 | 100.78238 | 1563 ft | 124 kts | 193° |
| 2026-04-16 13:41 | 13.76463 | 100.78017 | 1412 ft | 125 kts | 193° |
| 2026-04-16 13:41 | 13.75609 | 100.77794 | 1252 ft | 126 kts | 193° |
| 2026-04-16 13:41 | 13.74757 | 100.77571 | 1087 ft | 125 kts | 193° |
| 2026-04-16 13:41 | 13.73919 | 100.77351 | 929 ft | 125 kts | 193° |
| 2026-04-16 13:42 | 13.73074 | 100.77129 | 769 ft | 124 kts | 193° |
| 2026-04-16 13:42 | 13.72241 | 100.76910 | 615 ft | 123 kts | 194° |
| 2026-04-16 13:42 | 13.71409 | 100.76690 | 464 ft | 123 kts | 195° |
| 2026-04-16 13:42 | 13.70579 | 100.76463 | 305 ft | 123 kts | 194° |
| 2026-04-16 13:43 | 13.69741 | 100.76244 | 163 ft | 124 kts | 194° |
| 2026-04-16 13:43 | 13.68895 | 100.76028 | 18 ft | 123 kts | 194° |
| 2026-04-16 13:43 | 13.68154 | 100.75839 | 12 ft | 88 kts | 195° |
| 2026-04-16 13:43 | 13.67726 | 100.75719 | 12 ft | 38 kts | 196° |
| 2026-04-16 13:44 | 13.67571 | 100.75650 | 12 ft | 20 kts | 213° |
| 2026-04-16 13:44 | 13.67471 | 100.75557 | 12 ft | 16 kts | 226° |
| 2026-04-16 13:44 | 13.67445 | 100.75501 | 12 ft | 8 kts | 288° |
| 2026-04-16 13:44 | 13.67492 | 100.75471 | 12 ft | 9 kts | 8° |
| 2026-04-16 13:45 | 13.67564 | 100.75488 | 12 ft | 11 kts | 14° |
| 2026-04-16 13:45 | 13.67652 | 100.75512 | 12 ft | 16 kts | 15° |
| 2026-04-16 13:45 | 13.67795 | 100.75550 | 12 ft | 25 kts | 14° |
| 2026-04-16 13:45 | 13.67971 | 100.75596 | 12 ft | 25 kts | 14° |
| 2026-04-16 13:46 | 13.68143 | 100.75641 | 12 ft | 25 kts | 14° |
| 2026-04-16 13:46 | 13.68307 | 100.75684 | 14 ft | 23 kts | 14° |
| 2026-04-16 13:46 | 13.68474 | 100.75729 | 15 ft | 27 kts | 13° |
| 2026-04-16 13:46 | 13.68662 | 100.75777 | 15 ft | 27 kts | 14° |
| 2026-04-16 13:47 | 13.68841 | 100.75824 | 15 ft | 26 kts | 14° |
| 2026-04-16 13:47 | 13.69014 | 100.75869 | 14 ft | 20 kts | 14° |
| 2026-04-16 13:47 | 13.69087 | 100.75875 | 12 ft | 9 kts | 334° |
| 2026-04-16 13:47 | 13.69117 | 100.75817 | 13 ft | 9 kts | 283° |
| 2026-04-16 13:48 | 13.69134 | 100.75750 | 14 ft | 9 kts | 284° |
| 2026-04-16 13:48 | 13.69150 | 100.75680 | 15 ft | 10 kts | 284° |
| 2026-04-16 13:48 | 13.69165 | 100.75612 | 15 ft | 5 kts | 262° |
| 2026-04-16 13:48 | 13.69149 | 100.75573 | 15 ft | 6 kts | 278° |
| 2026-04-16 13:49 | 13.69161 | 100.75527 | 15 ft | 3 kts | 284° |
| 2026-04-16 13:49 | 13.69165 | 100.75510 | 15 ft | 2 kts | 283° |
| 2026-04-16 13:49 | 13.69168 | 100.75499 | 15 ft | 0 kts | 284° |
| 2026-04-16 13:49 | 13.69168 | 100.75497 | 15 ft | 0 kts | 284° |